^^
Station Historical Data
Daily Summary for January 8, 2018 Units:  English    Metric   Both
« Previous Day
Next Day »
Daily Weekly Monthly Yearly Custom
  High: Low: Average:
Temperature: TemperatureF °F 50.0 °F 62.1 °F
Dew Point: DewpointF °F 48.9 °F 56.6 °F
Humidity: Humidity% 63% 82%
Wind Speed: WindSpeedMPHmph 0.0mph 0mph
Wind Gust: WindSpeedGustMPHmph - -
Wind- - North
Pressure: PressureIn in 30.09 in -
Precipitation: 0.00 in    
Historical Graphs
 
 
Tabular Data for January 8, 2018
Time Temperature Dew Point Pressure Wind Wind Speed Wind Gust Humidity Rainfall Rate (Hourly) solar Conditions
TemperatureF °F DewpointF °F PressureIn in Calm     Humidity% HourlyPrecipIn in SolarRadiationWatts/m^2 W/m2 Conditions
04:30 50.0 °F 48.9 °F 30.23 in Calm     96% 0.00 in 0.0 W/m2 CLR
04:40 50.0 °F 48.9 °F 30.23 in Calm     96% 0.00 in 0.0 W/m2 CLR
04:45 50.0 °F 48.9 °F 30.23 in Calm     96% 0.00 in 0.0 W/m2 CLR
04:55 50.0 °F 48.9 °F 30.23 in Calm     96% 0.00 in 0.0 W/m2 CLR
05:10 52.0 °F 49.7 °F 30.22 in Calm     92% 0.00 in 0.0 W/m2 CLR
05:30 52.0 °F 49.7 °F 30.22 in Calm     92% 0.00 in 0.0 W/m2 CLR
05:45 52.0 °F 49.7 °F 30.22 in Calm     92% 0.00 in 0.0 W/m2 CLR
05:55 52.0 °F 49.7 °F 30.22 in Calm     92% 0.00 in 0.0 W/m2 CLR
06:00 52.0 °F 49.7 °F 30.22 in Calm     92% 0.00 in 0.0 W/m2 CLR
06:40 53.1 °F 50.8 °F 30.20 in Calm     92% 0.00 in 0.0 W/m2 CLR
06:55 53.1 °F 50.8 °F 30.20 in Calm     92% 0.00 in 0.0 W/m2 CLR
07:05 53.1 °F 50.8 °F 30.20 in Calm     92% 0.00 in 0.0 W/m2 FEW
07:10 53.1 °F 50.8 °F 30.20 in Calm     92% 0.00 in 0.0 W/m2 FEW
07:15 53.1 °F 50.8 °F 30.20 in Calm     92% 0.00 in 0.0 W/m2 FEW
07:40 53.1 °F 50.8 °F 30.20 in Calm     92% 0.00 in 0.0 W/m2 FEW
08:00 53.1 °F 50.8 °F 30.20 in Calm     92% 0.00 in 0.0 W/m2 FEW
08:10 55.9 °F 53.0 °F 30.19 in Calm     90% 0.00 in 0.0 W/m2 OVC
08:45 55.9 °F 53.0 °F 30.19 in Calm     90% 0.00 in 0.0 W/m2 OVC
09:30 59.0 °F 53.8 °F 30.22 in Calm     83% 0.00 in 0.0 W/m2 OVC
10:00 59.0 °F 53.8 °F 30.22 in Calm     83% 0.00 in 0.0 W/m2 -RA
11:30 66.9 °F 59.8 °F 30.21 in Calm     78% 0.00 in 0.0 W/m2 SCT
11:40 66.9 °F 59.8 °F 30.21 in Calm     78% 0.00 in 0.0 W/m2 OVC
11:45 66.9 °F 59.8 °F 30.21 in Calm     78% 0.00 in 0.0 W/m2 OVC
11:50 68.0 °F 59.8 °F 30.19 in Calm     75% 0.00 in 0.0 W/m2 OVC
12:00 68.0 °F 59.8 °F 30.19 in Calm     75% 0.00 in 0.0 W/m2 OVC
12:05 69.1 °F 60.1 °F 30.19 in Calm     73% 0.00 in 0.0 W/m2 BKN
12:15 69.1 °F 60.1 °F 30.19 in Calm     73% 0.00 in 0.0 W/m2 BKN
12:40 69.1 °F 60.1 °F 30.18 in Calm     73% 0.00 in 0.0 W/m2 BKN
12:50 69.1 °F 60.1 °F 30.18 in Calm     73% 0.00 in 0.0 W/m2 BKN
12:55 69.1 °F 60.1 °F 30.18 in Calm     73% 0.00 in 0.0 W/m2 BKN
13:00 69.1 °F 60.1 °F 30.18 in Calm     73% 0.00 in 0.0 W/m2 BKN
13:10 72.0 °F 58.7 °F 30.15 in Calm     63% 0.00 in 0.0 W/m2 BKN
13:15 72.0 °F 58.7 °F 30.15 in Calm     63% 0.00 in 0.0 W/m2 BKN
13:25 72.0 °F 58.7 °F 30.15 in Calm     63% 0.00 in 0.0 W/m2 BKN
13:30 72.0 °F 58.7 °F 30.15 in Calm     63% 0.00 in 0.0 W/m2 BKN
13:40 72.0 °F 58.7 °F 30.15 in Calm     63% 0.00 in 0.0 W/m2 BKN
13:45 72.0 °F 58.7 °F 30.15 in Calm     63% 0.00 in 0.0 W/m2 BKN
13:55 72.0 °F 58.7 °F 30.15 in Calm     63% 0.00 in 0.0 W/m2 BKN
14:05 71.1 °F 58.7 °F 30.11 in Calm     65% 0.00 in 0.0 W/m2 BKN
14:10 71.1 °F 58.7 °F 30.11 in Calm     65% 0.00 in 0.0 W/m2 BKN
14:15 71.1 °F 58.7 °F 30.11 in Calm     65% 0.00 in 0.0 W/m2 BKN
14:25 71.1 °F 58.7 °F 30.11 in Calm     65% 0.00 in 0.0 W/m2 BKN
14:30 71.1 °F 58.7 °F 30.11 in Calm     65% 0.00 in 0.0 W/m2 BKN
14:35 71.1 °F 58.7 °F 30.11 in Calm     65% 0.00 in 0.0 W/m2 BKN
14:40 71.1 °F 58.7 °F 30.11 in Calm     65% 0.00 in 0.0 W/m2 BKN
14:45 71.1 °F 58.7 °F 30.11 in Calm     65% 0.00 in 0.0 W/m2 BKN
15:05 71.1 °F 58.7 °F 30.09 in Calm     65% 0.00 in 0.0 W/m2 CLR
18:05 66.0 °F 59.0 °F 30.09 in Calm     78% 0.00 in 0.0 W/m2 CLR
18:20 66.0 °F 59.0 °F 30.09 in Calm     78% 0.00 in 0.0 W/m2 CLR
18:45 66.0 °F 59.0 °F 30.09 in Calm     78% 0.00 in 0.0 W/m2 CLR
18:55 66.0 °F 59.0 °F 30.09 in Calm     78% 0.00 in 0.0 W/m2 CLR
19:00 66.0 °F 59.0 °F 30.09 in Calm     78% 0.00 in 0.0 W/m2 CLR
19:15 64.0 °F 58.8 °F 30.12 in Calm     83% 0.00 in 0.0 W/m2 CLR
19:20 64.0 °F 58.8 °F 30.12 in Calm     83% 0.00 in 0.0 W/m2 CLR
19:25 64.0 °F 58.8 °F 30.12 in Calm     83% 0.00 in 0.0 W/m2 CLR
19:40 64.0 °F 58.8 °F 30.12 in Calm     83% 0.00 in 0.0 W/m2 CLR
19:50 64.0 °F 58.8 °F 30.12 in Calm     83% 0.00 in 0.0 W/m2 CLR
19:55 64.0 °F 58.8 °F 30.12 in Calm     83% 0.00 in 0.0 W/m2 CLR
20:00 64.0 °F 58.8 °F 30.12 in Calm     83% 0.00 in 0.0 W/m2 CLR
20:05 63.0 °F 58.7 °F 30.13 in Calm     86% 0.00 in 0.0 W/m2 SCT
20:15 63.0 °F 58.7 °F 30.13 in Calm     86% 0.00 in 0.0 W/m2 SCT
20:20 63.0 °F 58.7 °F 30.13 in Calm     86% 0.00 in 0.0 W/m2 SCT
20:25 63.0 °F 58.7 °F 30.13 in Calm     86% 0.00 in 0.0 W/m2 SCT
20:50 63.0 °F 58.7 °F 30.13 in Calm     86% 0.00 in 0.0 W/m2 SCT
20:55 63.0 °F 58.7 °F 30.13 in Calm     86% 0.00 in 0.0 W/m2 SCT
21:00 63.0 °F 58.7 °F 30.13 in Calm     86% 0.00 in 0.0 W/m2 SCT
21:15 62.1 °F 58.8 °F 30.12 in Calm     89% 0.00 in 0.0 W/m2 CLR
21:25 62.1 °F 58.8 °F 30.12 in Calm     89% 0.00 in 0.0 W/m2 CLR
21:35 62.1 °F 58.8 °F 30.12 in Calm     89% 0.00 in 0.0 W/m2 CLR
21:50 62.1 °F 58.8 °F 30.12 in Calm     89% 0.00 in 0.0 W/m2 CLR
22:05 61.0 °F 59.8 °F 30.12 in Calm     96% 0.00 in 0.0 W/m2 CLR
22:10 61.0 °F 59.8 °F 30.12 in Calm     96% 0.00 in 0.0 W/m2 CLR
22:25 61.0 °F 59.8 °F 30.12 in Calm     96% 0.00 in 0.0 W/m2 CLR
22:30 61.0 °F 59.8 °F 30.12 in Calm     96% 0.00 in 0.0 W/m2 CLR
22:40 61.0 °F 59.8 °F 30.12 in Calm     96% 0.00 in 0.0 W/m2 CLR
22:50 61.0 °F 59.8 °F 30.12 in Calm     96% 0.00 in 0.0 W/m2 CLR
22:55 61.0 °F 59.8 °F 30.12 in Calm     96% 0.00 in 0.0 W/m2 CLR
23:00 61.0 °F 59.8 °F 30.12 in Calm     96% 0.00 in 0.0 W/m2 CLR
23:10 61.0 °F 59.8 °F 30.11 in Calm     96% 0.00 in 0.0 W/m2 FEW
23:15 61.0 °F 59.8 °F 30.11 in Calm     96% 0.00 in 0.0 W/m2 FEW
23:25 61.0 °F 59.8 °F 30.11 in Calm     96% 0.00 in 0.0 W/m2 FEW
23:30 61.0 °F 59.8 °F 30.11 in Calm     96% 0.00 in 0.0 W/m2 FEW
23:35 61.0 °F 59.8 °F 30.11 in Calm     96% 0.00 in 0.0 W/m2 FEW
23:40 61.0 °F 59.8 °F 30.11 in Calm     96% 0.00 in 0.0 W/m2 FEW
23:50 61.0 °F 59.8 °F 30.11 in Calm     96% 0.00 in 0.0 W/m2 FEW
23:55 61.0 °F 59.8 °F 30.11 in Calm     96% 0.00 in 0.0 W/m2 FEW
Lake Mary, FL, USA
Compliments of Weather Underground - 1.25 mb